Time;durP1;ratioP1;P1;durP2;ratioP2;P2;SDS_P1;SDS_P2;PMS_P1;PMS_P2;Temp;Humidity;BMP_temperature;BMP_pressure;BME280_temperature;BME280_humidity;BME280_pressure;Samples;Min_cycle;Max_cycle;Signal;HPM_P1;HPM_P2
2023/08/30 00:00:02;;;;;;;5.72;2.83;;;20.00;99.90;;;;;;5092529;28;20546;-78
2023/08/30 00:02:33;;;;;;;5.25;2.90;;;20.10;99.90;;;;;;5093174;28;20189;-79
2023/08/30 00:05:05;;;;;;;4.05;2.83;;;20.20;99.90;;;;;;5093295;28;20587;-79
2023/08/30 00:07:35;;;;;;;4.63;2.70;;;20.40;99.90;;;;;;5088203;28;20195;-78
2023/08/30 00:10:07;;;;;;;5.18;2.75;;;20.40;99.90;;;;;;5093285;28;20228;-76
2023/08/30 00:12:40;;;;;;;7.47;2.88;;;20.60;99.90;;;;;;5093192;28;20228;-77
2023/08/30 00:15:13;;;;;;;5.55;2.80;;;20.70;99.90;;;;;;5092767;28;20188;-76
2023/08/30 00:17:45;;;;;;;4.75;2.75;;;20.90;99.90;;;;;;5093086;28;20283;-75
2023/08/30 00:20:16;;;;;;;5.22;2.90;;;21.00;99.90;;;;;;5092999;28;20208;-75
2023/08/30 00:22:46;;;;;;;5.95;2.60;;;21.20;99.90;;;;;;5092708;28;20658;-76
2023/08/30 00:25:17;;;;;;;4.80;2.90;;;21.30;99.90;;;;;;5090782;28;20238;-75
2023/08/30 00:27:48;;;;;;;7.18;3.17;;;21.40;99.90;;;;;;5093128;28;20188;-75
2023/08/30 00:30:21;;;;;;;4.15;2.58;;;21.60;99.90;;;;;;5092909;28;20216;-75
2023/08/30 00:32:51;;;;;;;5.63;2.85;;;21.70;99.90;;;;;;5093038;28;20199;-75
2023/08/30 00:35:22;;;;;;;4.53;2.75;;;21.80;99.90;;;;;;5092771;28;20192;-75
2023/08/30 00:37:53;;;;;;;4.10;2.28;;;22.00;99.90;;;;;;5092771;28;20279;-75
2023/08/30 00:40:27;;;;;;;4.10;2.15;;;22.10;99.90;;;;;;5092276;28;20226;-75
2023/08/30 00:42:58;;;;;;;3.65;2.60;;;22.20;99.90;;;;;;5092132;28;20217;-78
2023/08/30 00:45:32;;;;;;;6.30;2.63;;;22.30;99.90;;;;;;5092680;28;20551;-78
2023/08/30 00:48:04;;;;;;;6.07;2.40;;;22.50;99.90;;;;;;5091379;28;20275;-78
2023/08/30 00:50:35;;;;;;;6.28;2.60;;;22.70;99.90;;;;;;5090970;28;20223;-77
2023/08/30 00:53:07;;;;;;;6.45;2.05;;;22.80;99.90;;;;;;5092625;28;20184;-78
2023/08/30 00:55:38;;;;;;;4.53;2.30;;;23.00;99.90;;;;;;5092548;28;20192;-77
2023/08/30 00:58:10;;;;;;;3.92;2.10;;;23.10;99.90;;;;;;5087944;28;20218;-78
2023/08/30 01:00:42;;;;;;;2.55;1.90;;;23.20;99.90;;;;;;5083079;28;20218;-79
2023/08/30 01:03:13;;;;;;;3.83;2.00;;;23.40;99.90;;;;;;5092496;28;20203;-78
2023/08/30 01:05:44;;;;;;;3.45;2.13;;;23.50;99.90;;;;;;5092469;28;20184;-78
2023/08/30 01:08:15;;;;;;;4.90;1.90;;;23.70;99.90;;;;;;5092456;28;20212;-79
2023/08/30 01:10:55;;;;;;;2.63;1.50;;;23.80;99.90;;;;;;5092599;28;20227;-79
2023/08/30 01:13:27;;;;;;;3.47;1.80;;;23.90;99.90;;;;;;5094763;28;20239;-78
2023/08/30 01:16:01;;;;;;;4.35;2.00;;;24.00;99.90;;;;;;5095631;28;20553;-78
2023/08/30 01:18:35;;;;;;;2.13;1.60;;;24.10;99.90;;;;;;5095063;28;20619;-78
2023/08/30 01:21:07;;;;;;;4.68;1.70;;;24.20;99.90;;;;;;5081454;28;20305;-78
2023/08/30 01:23:50;;;;;;;3.40;1.75;;;24.30;99.90;;;;;;5087934;28;20283;-77
2023/08/30 01:26:29;;;;;;;3.25;1.38;;;24.50;99.90;;;;;;5095775;28;20640;-76
2023/08/30 01:29:05;;;;;;;2.42;1.50;;;24.70;99.90;;;;;;5096070;28;20281;-78
2023/08/30 01:31:38;;;;;;;3.28;1.52;;;24.80;99.90;;;;;;5095867;28;20556;-76
2023/08/30 01:34:09;;;;;;;1.90;1.30;;;24.90;99.90;;;;;;5095766;28;20196;-76
2023/08/30 01:36:42;;;;;;;2.72;1.23;;;25.00;99.90;;;;;;5095659;28;20196;-77
2023/08/30 01:39:16;;;;;;;2.00;1.30;;;25.10;99.90;;;;;;5094250;28;20184;-78
2023/08/30 01:41:47;;;;;;;2.55;1.40;;;25.10;99.90;;;;;;5094047;28;20230;-78
2023/08/30 01:44:20;;;;;;;2.60;1.40;;;25.20;99.90;;;;;;5095721;28;20518;-80
2023/08/30 01:46:51;;;;;;;1.38;1.20;;;25.30;99.90;;;;;;5095546;28;20192;-78
2023/08/30 01:49:22;;;;;;;2.00;1.38;;;25.40;99.90;;;;;;5095424;28;20184;-79
2023/08/30 01:51:56;;;;;;;2.15;1.20;;;25.40;99.90;;;;;;5095409;28;20199;-79
2023/08/30 01:54:29;;;;;;;1.48;1.30;;;25.50;99.90;;;;;;5095465;28;20188;-78
2023/08/30 01:57:00;;;;;;;3.15;1.40;;;25.60;99.90;;;;;;5095354;28;20207;-78
2023/08/30 01:59:33;;;;;;;2.65;1.20;;;25.70;99.90;;;;;;5092238;28;20207;-78
2023/08/30 02:02:04;;;;;;;1.58;1.17;;;25.80;99.90;;;;;;5095284;28;20231;-77
2023/08/30 02:04:34;;;;;;;3.08;1.10;;;25.80;99.90;;;;;;5095352;28;20275;-79
2023/08/30 02:07:11;;;;;;;4.07;1.30;;;25.90;99.90;;;;;;5095313;28;20200;-79
2023/08/30 02:09:49;;;;;;;2.05;1.23;;;26.00;99.90;;;;;;5094913;28;20697;-77
2023/08/30 02:12:22;;;;;;;3.40;1.35;;;26.00;99.90;;;;;;5095250;28;20236;-77
2023/08/30 02:14:55;;;;;;;2.20;1.30;;;26.10;99.90;;;;;;5085309;28;20197;-79
2023/08/30 02:17:27;;;;;;;3.22;1.17;;;26.10;99.90;;;;;;5095233;28;20189;-79
2023/08/30 02:19:58;;;;;;;1.85;1.20;;;26.20;99.90;;;;;;5095289;28;20192;-78
2023/08/30 02:22:28;;;;;;;4.60;1.40;;;26.20;99.90;;;;;;5094993;28;20220;-76
2023/08/30 02:24:59;;;;;;;2.55;1.10;;;26.20;99.90;;;;;;5093418;28;20199;-79
2023/08/30 02:27:30;;;;;;;2.72;1.38;;;26.20;99.90;;;;;;5094177;28;20567;-77
2023/08/30 02:30:03;;;;;;;2.70;1.40;;;26.20;99.90;;;;;;5094761;28;20227;-81
2023/08/30 02:32:34;;;;;;;1.10;1.00;;;26.20;99.90;;;;;;5094786;28;20204;-78
2023/08/30 02:35:05;;;;;;;2.15;1.20;;;26.20;99.90;;;;;;5080676;28;20207;-80
2023/08/30 02:37:36;;;;;;;1.60;1.30;;;26.20;99.90;;;;;;5075462;28;20197;-81
2023/08/30 02:40:08;;;;;;;3.00;1.27;;;26.20;99.90;;;;;;5074976;28;20276;-81
2023/08/30 02:42:39;;;;;;;1.60;1.08;;;26.20;99.90;;;;;;5093209;28;20250;-83
2023/08/30 02:45:12;;;;;;;2.95;1.33;;;26.20;99.90;;;;;;5075309;28;20653;-83
2023/08/30 02:47:43;;;;;;;3.28;1.25;;;26.20;99.90;;;;;;5075261;28;20271;-81
2023/08/30 02:50:14;;;;;;;1.38;1.10;;;26.20;99.90;;;;;;5078420;28;20196;-84
2023/08/30 02:52:44;;;;;;;1.75;1.42;;;26.30;99.90;;;;;;5089239;28;20663;-81
2023/08/30 02:55:15;;;;;;;1.88;1.45;;;26.30;99.90;;;;;;5084319;28;20609;-81
2023/08/30 02:57:46;;;;;;;1.10;0.98;;;26.40;99.90;;;;;;5090024;28;20195;-79
2023/08/30 03:00:19;;;;;;;2.25;1.30;;;26.40;99.90;;;;;;5082723;28;20196;-79
2023/08/30 03:02:50;;;;;;;3.17;1.40;;;26.40;99.90;;;;;;5091376;28;20193;-74
2023/08/30 03:05:21;;;;;;;2.33;1.20;;;26.30;99.90;;;;;;5081621;28;20193;-74
2023/08/30 03:07:52;;;;;;;2.20;1.05;;;26.30;99.90;;;;;;5074476;28;20193;-77
2023/08/30 03:10:23;;;;;;;1.88;1.08;;;26.40;99.90;;;;;;5090139;28;20197;-81
2023/08/30 03:12:54;;;;;;;1.75;1.25;;;26.40;99.90;;;;;;5092119;28;20220;-77
2023/08/30 03:15:26;;;;;;;1.52;1.30;;;26.40;99.90;;;;;;5092389;28;20189;-79
2023/08/30 03:17:57;;;;;;;1.55;1.10;;;26.40;99.90;;;;;;5090613;28;20228;-75
2023/08/30 03:20:28;;;;;;;1.30;1.02;;;26.50;99.90;;;;;;5093941;28;20189;-77
2023/08/30 03:23:00;;;;;;;1.58;1.13;;;26.60;99.90;;;;;;5093725;28;20188;-80
2023/08/30 03:25:33;;;;;;;3.22;1.27;;;26.50;99.90;;;;;;5092668;28;20206;-74
2023/08/30 03:28:04;;;;;;;1.00;1.00;;;26.50;99.90;;;;;;5093643;28;20320;-79
2023/08/30 03:30:36;;;;;;;1.10;1.00;;;26.60;99.90;;;;;;5093775;28;20551;-75
2023/08/30 03:33:07;;;;;;;1.38;1.10;;;26.60;99.90;;;;;;5089054;28;20279;-74
2023/08/30 03:35:38;;;;;;;1.90;1.00;;;26.70;99.90;;;;;;5091725;28;20181;-76
2023/08/30 03:38:09;;;;;;;1.05;0.95;;;26.70;99.90;;;;;;5084868;28;20188;-79
2023/08/30 03:40:40;;;;;;;2.67;1.20;;;26.70;99.90;;;;;;5093806;28;20189;-79
2023/08/30 03:43:11;;;;;;;1.63;1.02;;;26.60;99.90;;;;;;5082790;28;20200;-80
2023/08/30 03:45:43;;;;;;;1.73;0.90;;;26.60;99.90;;;;;;5073216;28;20189;-78
2023/08/30 03:48:14;;;;;;;1.20;0.93;;;26.40;99.90;;;;;;5073119;28;20193;-80
2023/08/30 03:50:45;;;;;;;1.40;0.90;;;26.20;99.90;;;;;;5075536;28;20231;-75
2023/08/30 03:53:16;;;;;;;1.35;0.95;;;26.00;99.90;;;;;;5078325;28;20196;-82
2023/08/30 03:55:46;;;;;;;2.05;1.40;;;25.80;99.90;;;;;;5093250;28;20202;-80
2023/08/30 03:58:17;;;;;;;1.48;1.13;;;25.70;99.90;;;;;;5092574;28;20659;-77
2023/08/30 04:00:50;;;;;;;2.90;1.05;;;25.50;99.90;;;;;;5092015;28;20201;-82
2023/08/30 04:03:21;;;;;;;1.08;0.88;;;25.40;99.90;;;;;;5090972;28;20192;-78
2023/08/30 04:05:56;;;;;;;2.28;1.00;;;25.30;99.90;;;;;;5093202;28;20208;-79
2023/08/30 04:08:27;;;;;;;1.10;1.00;;;25.20;99.90;;;;;;5093415;28;20191;-76
2023/08/30 04:10:58;;;;;;;1.40;1.20;;;25.20;99.90;;;;;;5091812;28;20660;-72
2023/08/30 04:13:29;;;;;;;2.22;1.27;;;25.10;99.90;;;;;;5077540;28;20362;-74
2023/08/30 04:16:01;;;;;;;1.70;1.00;;;25.10;99.90;;;;;;5073279;28;20271;-74
2023/08/30 04:18:32;;;;;;;2.35;1.20;;;25.10;99.90;;;;;;5080505;28;20206;-74
2023/08/30 04:21:03;;;;;;;2.97;1.50;;;25.00;99.90;;;;;;5092669;28;20192;-82
2023/08/30 04:23:34;;;;;;;3.85;1.30;;;25.00;99.90;;;;;;5093031;28;20196;-82
2023/08/30 04:26:05;;;;;;;1.38;1.17;;;24.90;99.90;;;;;;5092271;28;20192;-82
2023/08/30 04:28:36;;;;;;;1.98;1.30;;;24.80;99.90;;;;;;5080059;28;20221;-82
2023/08/30 04:31:08;;;;;;;1.80;1.17;;;24.70;99.90;;;;;;5074994;28;20195;-82
2023/08/30 04:33:39;;;;;;;2.05;1.20;;;24.60;99.90;;;;;;5091897;28;20679;-80
2023/08/30 04:36:10;;;;;;;4.30;2.10;;;24.50;99.90;;;;;;5089211;28;20628;-78
2023/08/30 04:38:41;;;;;;;1.98;1.38;;;24.40;99.90;;;;;;5092884;28;20198;-81
2023/08/30 04:41:11;;;;;;;1.55;1.15;;;24.40;99.90;;;;;;5092672;28;20220;-82
2023/08/30 04:43:42;;;;;;;2.88;1.33;;;24.40;99.90;;;;;;5092747;28;20655;-81
2023/08/30 04:46:15;;;;;;;3.70;1.60;;;24.40;99.90;;;;;;5090826;28;20185;-80
2023/08/30 04:48:45;;;;;;;2.78;1.35;;;24.60;99.90;;;;;;5090858;28;20648;-81
2023/08/30 04:51:16;;;;;;;3.03;1.40;;;24.60;99.90;;;;;;5089373;28;20197;-82
2023/08/30 04:53:47;;;;;;;1.85;0.98;;;24.50;99.90;;;;;;5076385;28;20196;-76
2023/08/30 04:56:18;;;;;;;1.20;1.10;;;24.30;99.90;;;;;;5077167;28;20647;-82
2023/08/30 04:58:50;;;;;;;2.45;1.00;;;24.10;99.90;;;;;;5076075;28;20185;-81
2023/08/30 05:01:22;;;;;;;3.03;1.10;;;23.90;99.90;;;;;;5078713;28;20263;-81
2023/08/30 05:03:53;;;;;;;3.53;2.13;;;23.70;99.90;;;;;;5093024;28;20198;-82
2023/08/30 05:06:24;;;;;;;1.75;1.05;;;23.60;99.90;;;;;;5084779;28;20189;-83
2023/08/30 05:08:58;;;;;;;1.85;1.15;;;23.40;99.90;;;;;;5076501;28;20206;-83
2023/08/30 05:11:28;;;;;;;5.10;1.90;;;23.30;99.90;;;;;;5076105;28;20193;-81
2023/08/30 05:13:59;;;;;;;4.72;1.83;;;23.20;99.90;;;;;;5076593;28;20192;-82
2023/08/30 05:16:32;;;;;;;2.10;1.88;;;23.10;99.90;;;;;;5086329;28;20198;-83
2023/08/30 05:19:03;;;;;;;2.72;1.52;;;23.00;99.90;;;;;;5079224;28;20207;-82
2023/08/30 05:21:33;;;;;;;4.78;1.98;;;22.90;99.90;;;;;;5075965;28;20685;-77
2023/08/30 05:24:05;;;;;;;4.10;2.00;;;22.70;99.90;;;;;;5084811;28;20196;-83
2023/08/30 05:26:36;;;;;;;3.95;2.08;;;22.40;99.90;;;;;;5089852;28;20192;-82
2023/08/30 05:29:07;;;;;;;2.80;1.75;;;22.20;99.90;;;;;;5078351;28;20228;-76
2023/08/30 05:31:39;;;;;;;3.00;1.90;;;22.00;99.90;;;;;;5091003;28;20197;-75
2023/08/30 05:34:10;;;;;;;3.03;1.95;;;21.90;99.90;;;;;;5089030;28;20200;-76
2023/08/30 05:36:41;;;;;;;4.93;2.22;;;21.70;99.90;;;;;;5089741;28;20199;-76
2023/08/30 05:39:12;;;;;;;3.97;2.25;;;21.60;99.90;;;;;;5094498;28;20211;-79
2023/08/30 05:41:43;;;;;;;4.93;2.20;;;21.60;99.90;;;;;;5094877;28;20693;-77
2023/08/30 05:44:14;;;;;;;7.32;2.70;;;21.50;99.90;;;;;;5095691;28;20196;-78
2023/08/30 05:46:46;;;;;;;3.72;2.45;;;21.40;99.90;;;;;;5091800;28;20192;-76
2023/08/30 05:49:17;;;;;;;5.05;2.42;;;21.30;99.90;;;;;;5085106;28;20193;-74
2023/08/30 05:51:48;;;;;;;4.65;2.53;;;21.30;99.90;;;;;;5075398;28;20205;-74
2023/08/30 05:54:19;;;;;;;7.93;2.83;;;21.20;99.90;;;;;;5075341;28;20189;-77
2023/08/30 05:56:49;;;;;;;5.10;2.30;;;21.20;99.90;;;;;;5075213;28;20195;-76
2023/08/30 05:59:19;;;;;;;5.55;2.20;;;21.00;99.90;;;;;;5084995;28;20196;-78
2023/08/30 06:01:51;;;;;;;5.25;2.88;;;20.90;99.90;;;;;;5082787;28;20224;-73
2023/08/30 06:04:22;;;;;;;5.40;2.10;;;20.90;99.90;;;;;;5075382;28;20189;-74
2023/08/30 06:06:53;;;;;;;2.85;1.25;;;20.90;99.90;;;;;;5075203;28;20193;-82
2023/08/30 06:09:23;;;;;;;3.58;1.63;;;20.90;99.90;;;;;;5075171;28;20185;-79
2023/08/30 06:11:54;;;;;;;3.08;1.60;;;20.80;99.90;;;;;;5087241;28;20541;-83
2023/08/30 06:14:25;;;;;;;3.63;1.88;;;20.60;99.90;;;;;;5094983;28;20640;-86
2023/08/30 06:16:58;;;;;;;3.72;1.63;;;20.30;99.90;;;;;;5093850;28;20243;-78
2023/08/30 06:19:29;;;;;;;5.63;1.83;;;19.90;99.90;;;;;;5090460;28;20196;-75
2023/08/30 06:21:59;;;;;;;6.63;2.22;;;19.40;99.90;;;;;;5095042;28;20216;-75
2023/08/30 06:24:30;;;;;;;3.72;1.80;;;19.10;99.90;;;;;;5095090;28;20193;-75
2023/08/30 06:27:01;;;;;;;4.85;2.10;;;18.70;99.90;;;;;;5094885;28;20589;-75
2023/08/30 06:29:32;;;;;;;9.05;2.22;;;18.30;99.90;;;;;;5089750;28;20192;-73
2023/08/30 06:32:05;;;;;;;4.60;2.03;;;18.00;99.90;;;;;;5082597;28;20184;-74
2023/08/30 06:34:36;;;;;;;4.70;1.80;;;17.70;99.90;;;;;;5094931;28;20637;-73
2023/08/30 06:37:07;;;;;;;3.70;1.52;;;17.50;99.90;;;;;;5079165;28;20606;-73
2023/08/30 06:39:38;;;;;;;2.63;1.40;;;17.30;99.90;;;;;;5084972;28;20193;-73
2023/08/30 06:42:09;;;;;;;3.10;1.60;;;17.10;99.90;;;;;;5088198;28;20220;-73
2023/08/30 06:44:40;;;;;;;2.42;1.50;;;17.10;99.90;;;;;;5088364;28;20196;-75
2023/08/30 06:47:13;;;;;;;3.17;1.60;;;17.00;99.90;;;;;;5094674;28;20184;-74
2023/08/30 06:49:43;;;;;;;2.40;1.73;;;17.00;99.90;;;;;;5077135;28;20193;-74
2023/08/30 06:52:14;;;;;;;2.35;1.50;;;16.90;99.90;;;;;;5085617;28;20203;-74
2023/08/30 06:54:45;;;;;;;1.58;1.40;;;16.80;99.90;;;;;;5094145;28;20198;-74
2023/08/30 06:57:15;;;;;;;2.67;1.50;;;16.80;99.90;;;;;;5094153;28;20199;-74
2023/08/30 06:59:46;;;;;;;5.15;1.40;;;16.80;99.90;;;;;;5093201;28;20227;-75
2023/08/30 07:02:19;;;;;;;2.85;1.58;;;16.70;99.90;;;;;;5093473;28;20220;-73
2023/08/30 07:04:52;;;;;;;2.63;1.27;;;16.70;99.90;;;;;;5074320;28;20203;-74
2023/08/30 07:07:23;;;;;;;2.33;1.60;;;16.60;99.90;;;;;;5090971;28;20196;-74
2023/08/30 07:09:54;;;;;;;3.78;2.00;;;16.60;99.90;;;;;;5093028;28;20189;-73
2023/08/30 07:12:25;;;;;;;4.30;1.50;;;16.50;99.90;;;;;;5079713;28;20239;-73
2023/08/30 07:14:56;;;;;;;2.88;1.70;;;16.40;99.90;;;;;;5093730;28;20191;-74
2023/08/30 07:17:28;;;;;;;3.05;1.80;;;16.40;99.90;;;;;;5086575;28;20293;-73
2023/08/30 07:19:59;;;;;;;2.25;1.60;;;16.30;99.90;;;;;;5091397;28;20306;-74
2023/08/30 07:22:30;;;;;;;5.07;1.95;;;16.30;99.90;;;;;;5073533;28;20234;-74
2023/08/30 07:25:00;;;;;;;3.60;1.88;;;16.20;99.90;;;;;;5090900;28;20200;-73
2023/08/30 07:27:31;;;;;;;2.55;1.60;;;16.10;99.90;;;;;;5078779;28;20232;-73
2023/08/30 07:30:02;;;;;;;3.65;1.70;;;16.10;99.90;;;;;;5079989;28;20207;-74
2023/08/30 07:32:35;;;;;;;3.40;1.70;;;16.00;99.90;;;;;;5093766;28;20671;-74
2023/08/30 07:35:07;;;;;;;4.38;1.77;;;16.00;99.90;;;;;;5080354;28;20275;-74
2023/08/30 07:37:38;;;;;;;3.28;1.65;;;15.90;99.90;;;;;;5088192;28;20199;-76
2023/08/30 07:40:09;;;;;;;5.22;2.00;;;15.90;99.90;;;;;;5081471;28;20283;-76
2023/08/30 07:42:40;;;;;;;2.97;1.90;;;15.80;99.90;;;;;;5087315;28;20294;-75
2023/08/30 07:45:11;;;;;;;2.90;2.05;;;15.80;99.90;;;;;;5077799;28;20185;-76
2023/08/30 07:47:47;;;;;;;3.35;2.03;;;15.90;99.90;;;;;;5092585;28;20192;-75
2023/08/30 07:50:18;;;;;;;2.83;1.80;;;15.60;99.90;;;;;;5093493;28;20200;-75
2023/08/30 07:52:49;;;;;;;3.67;1.92;;;15.60;99.90;;;;;;5093479;28;20194;-75
2023/08/30 07:55:20;;;;;;;3.65;2.10;;;15.60;99.90;;;;;;5077188;28;20189;-75
2023/08/30 07:57:51;;;;;;;3.85;1.92;;;15.50;99.90;;;;;;5090494;28;20207;-76
2023/08/30 08:00:22;;;;;;;3.05;1.80;;;15.50;99.90;;;;;;5089751;28;20197;-74
2023/08/30 08:02:54;;;;;;;4.20;1.90;;;15.40;99.90;;;;;;5074102;28;20219;-74
2023/08/30 08:05:25;;;;;;;3.45;2.10;;;15.40;99.90;;;;;;5081320;28;20197;-75
2023/08/30 08:07:56;;;;;;;2.30;1.75;;;15.40;99.90;;;;;;5080738;28;20193;-77
2023/08/30 08:10:27;;;;;;;2.92;2.08;;;15.40;99.90;;;;;;5075073;28;20602;-76
2023/08/30 08:12:58;;;;;;;3.42;2.03;;;15.40;99.90;;;;;;5072417;28;20587;-79
2023/08/30 08:15:29;;;;;;;4.45;2.00;;;15.40;99.90;;;;;;5072696;28;20197;-75
2023/08/30 08:18:02;;;;;;;3.83;2.10;;;15.50;99.90;;;;;;5086187;28;20198;-78
2023/08/30 08:20:35;;;;;;;3.25;1.75;;;15.50;99.90;;;;;;5085685;28;20203;-77
2023/08/30 08:23:05;;;;;;;2.42;1.80;;;15.50;99.90;;;;;;5080994;28;20223;-77
2023/08/30 08:25:36;;;;;;;3.55;2.00;;;15.50;99.90;;;;;;5079821;28;20535;-78
2023/08/30 08:28:07;;;;;;;2.05;1.80;;;15.50;99.90;;;;;;5077626;28;20583;-77
2023/08/30 08:30:40;;;;;;;3.60;2.00;;;15.50;99.90;;;;;;5084088;28;20562;-78
2023/08/30 08:33:12;;;;;;;3.78;1.88;;;15.50;99.90;;;;;;5083062;28;20742;-78
2023/08/30 08:35:43;;;;;;;4.85;2.53;;;15.40;99.90;;;;;;5076946;28;20212;-77
2023/08/30 08:38:14;;;;;;;4.63;2.53;;;15.50;99.90;;;;;;5076724;28;20196;-78
2023/08/30 08:40:45;;;;;;;6.05;2.60;;;15.50;99.90;;;;;;5076848;28;20207;-77
2023/08/30 08:43:16;;;;;;;4.80;2.65;;;15.50;99.90;;;;;;5093179;28;20219;-78
2023/08/30 08:45:48;;;;;;;4.88;2.30;;;15.50;99.90;;;;;;5095690;28;20203;-78
2023/08/30 08:48:21;;;;;;;4.68;2.60;;;15.40;99.90;;;;;;5086216;28;20196;-78
2023/08/30 08:50:53;;;;;;;5.05;2.50;;;15.40;99.90;;;;;;5080043;28;20200;-77
2023/08/30 08:53:25;;;;;;;3.95;2.45;;;15.40;99.90;;;;;;5083133;28;20239;-78
2023/08/30 08:55:57;;;;;;;5.03;2.50;;;15.50;99.90;;;;;;5090576;28;20197;-78
2023/08/30 08:58:28;;;;;;;5.53;2.60;;;15.40;99.90;;;;;;5089673;28;20193;-77
2023/08/30 09:01:00;;;;;;;6.80;2.30;;;15.40;99.90;;;;;;5088224;28;20197;-77
2023/08/30 09:03:34;;;;;;;5.82;3.10;;;15.40;99.90;;;;;;5083723;28;20562;-76
2023/08/30 09:06:09;;;;;;;4.22;2.67;;;15.40;99.90;;;;;;5079812;28;20208;-77
2023/08/30 09:08:39;;;;;;;5.30;2.58;;;15.30;99.90;;;;;;5089535;28;20206;-76
2023/08/30 09:11:10;;;;;;;3.72;2.45;;;15.30;99.90;;;;;;5095766;28;20192;-77
2023/08/30 09:13:42;;;;;;;4.80;2.40;;;15.30;99.90;;;;;;5080037;28;20247;-76
2023/08/30 09:16:17;;;;;;;5.63;2.60;;;15.20;99.90;;;;;;5075822;28;20197;-77
2023/08/30 09:19:01;;;;;;;5.32;2.55;;;15.20;99.90;;;;;;5084545;28;20203;-77
2023/08/30 09:21:32;;;;;;;4.60;2.30;;;15.20;99.90;;;;;;5075810;28;20215;-77
2023/08/30 09:24:04;;;;;;;4.03;2.20;;;15.20;99.90;;;;;;5087426;28;20213;-78
2023/08/30 09:26:37;;;;;;;9.45;2.45;;;15.20;99.90;;;;;;5079411;28;20274;-79
2023/08/30 09:29:08;;;;;;;5.50;2.92;;;15.20;99.90;;;;;;5075647;28;20200;-77
2023/08/30 09:31:40;;;;;;;7.70;2.90;;;15.20;99.90;;;;;;5076760;28;20195;-78
2023/08/30 09:34:13;;;;;;;7.95;2.70;;;15.20;99.90;;;;;;5075876;28;20566;-76
2023/08/30 09:36:48;;;;;;;5.80;3.13;;;15.10;99.90;;;;;;5083621;28;20197;-78
2023/08/30 09:39:20;;;;;;;6.13;2.50;;;15.10;99.90;;;;;;5080040;28;20196;-76
2023/08/30 09:41:52;;;;;;;4.28;2.40;;;15.10;99.90;;;;;;5083305;28;20234;-77
2023/08/30 09:44:24;;;;;;;5.47;2.20;;;15.10;99.90;;;;;;5080448;28;20212;-80
2023/08/30 09:46:55;;;;;;;2.45;2.00;;;15.00;99.90;;;;;;5075496;28;20266;-77
2023/08/30 09:49:28;;;;;;;4.82;1.92;;;15.00;99.90;;;;;;5075530;28;20200;-77
2023/08/30 09:52:06;;;;;;;3.95;2.15;;;14.90;99.90;;;;;;5075677;28;20197;-76
2023/08/30 09:54:41;;;;;;;3.58;1.88;;;14.90;99.90;;;;;;5089330;28;20200;-76
2023/08/30 09:57:12;;;;;;;2.97;1.80;;;14.90;99.90;;;;;;5080763;28;20245;-77
2023/08/30 09:59:44;;;;;;;3.28;2.00;;;14.80;99.90;;;;;;5079073;28;20207;-77
2023/08/30 10:02:15;;;;;;;3.97;2.00;;;14.80;99.90;;;;;;5087332;28;20196;-79
2023/08/30 10:04:48;;;;;;;5.13;2.03;;;14.80;99.90;;;;;;5074799;28;20220;-77
2023/08/30 10:07:20;;;;;;;3.58;1.80;;;14.70;99.90;;;;;;5074920;28;20197;-77
2023/08/30 10:09:53;;;;;;;2.50;1.90;;;14.80;99.90;;;;;;5074933;28;20201;-77
2023/08/30 10:12:25;;;;;;;3.42;1.80;;;14.70;99.90;;;;;;5074652;28;20237;-78
2023/08/30 10:14:56;;;;;;;2.83;1.80;;;14.70;99.90;;;;;;5078912;28;20549;-77
2023/08/30 10:17:30;;;;;;;3.42;1.90;;;14.70;99.90;;;;;;5086180;28;20272;-77
2023/08/30 10:20:04;;;;;;;3.17;1.90;;;14.70;99.90;;;;;;5076212;28;20505;-76
2023/08/30 10:22:37;;;;;;;3.20;2.03;;;14.70;99.90;;;;;;5080068;28;20198;-76
2023/08/30 10:25:12;;;;;;;5.25;2.35;;;14.70;99.90;;;;;;5080696;28;20199;-77
2023/08/30 10:27:46;;;;;;;4.28;2.20;;;14.80;99.90;;;;;;5075186;28;20213;-74
2023/08/30 10:30:18;;;;;;;3.63;2.20;;;14.80;99.90;;;;;;5079490;28;20203;-75
2023/08/30 10:32:49;;;;;;;2.83;2.10;;;14.80;99.90;;;;;;5092094;28;20214;-77
2023/08/30 10:35:22;;;;;;;3.35;2.05;;;14.80;99.90;;;;;;5088338;28;20200;-76
2023/08/30 10:37:59;;;;;;;2.50;1.90;;;14.80;99.90;;;;;;5074146;28;20629;-77
2023/08/30 10:40:30;;;;;;;3.17;2.00;;;14.80;99.90;;;;;;5078753;28;20200;-75
2023/08/30 10:43:08;;;;;;;3.22;2.00;;;14.80;99.90;;;;;;5089180;28;20533;-76
2023/08/30 10:45:39;;;;;;;2.63;1.90;;;14.80;99.90;;;;;;5085702;28;20196;-78
2023/08/30 10:48:10;;;;;;;2.78;1.75;;;14.70;99.90;;;;;;5082169;28;20246;-76
2023/08/30 10:50:43;;;;;;;3.08;1.90;;;14.70;99.90;;;;;;5075431;28;20201;-75
2023/08/30 10:53:17;;;;;;;3.78;1.80;;;14.70;99.90;;;;;;5084038;28;20570;-75
2023/08/30 10:56:13;;;;;;;2.10;1.88;;;14.70;99.90;;;;;;5073300;28;20211;-75
2023/08/30 10:58:45;;;;;;;2.78;2.00;;;14.70;99.90;;;;;;5084311;28;20198;-75
2023/08/30 11:01:16;;;;;;;3.00;1.90;;;14.70;99.90;;;;;;5093370;28;20192;-75
2023/08/30 11:03:47;;;;;;;2.25;1.77;;;14.70;99.90;;;;;;5093595;28;20211;-75
2023/08/30 11:06:21;;;;;;;2.92;1.77;;;14.70;99.90;;;;;;5074347;28;20648;-75
2023/08/30 11:08:52;;;;;;;2.38;1.60;;;14.70;99.90;;;;;;5074081;28;20672;-75
2023/08/30 11:11:23;;;;;;;2.28;1.70;;;14.70;99.90;;;;;;5077027;28;20201;-76
2023/08/30 11:13:54;;;;;;;1.88;1.65;;;14.70;99.90;;;;;;5073893;28;20199;-74
2023/08/30 11:16:27;;;;;;;2.10;1.50;;;14.70;99.90;;;;;;5073796;28;20211;-77
2023/08/30 11:18:58;;;;;;;3.03;1.42;;;14.70;99.90;;;;;;5074969;28;20184;-75
2023/08/30 11:21:31;;;;;;;1.98;1.40;;;14.70;99.90;;;;;;5087013;28;20207;-75
2023/08/30 11:24:03;;;;;;;2.63;1.52;;;14.70;99.90;;;;;;5094094;28;20570;-76
2023/08/30 11:26:33;;;;;;;1.50;1.38;;;14.70;99.90;;;;;;5093973;28;20230;-77
2023/08/30 11:29:09;;;;;;;1.30;1.20;;;14.60;99.90;;;;;;5093677;28;20188;-78
2023/08/30 11:31:40;;;;;;;3.22;1.63;;;14.70;99.90;;;;;;5073833;28;20644;-77
2023/08/30 11:34:10;;;;;;;2.08;1.50;;;14.60;99.90;;;;;;5073528;28;20599;-76
2023/08/30 11:36:43;;;;;;;2.22;1.58;;;14.70;99.90;;;;;;5073245;28;20548;-77
2023/08/30 11:39:14;;;;;;;2.88;1.65;;;14.70;99.90;;;;;;5074441;28;20203;-78
2023/08/30 11:41:46;;;;;;;1.98;1.42;;;14.70;99.90;;;;;;5091082;28;20284;-78
2023/08/30 11:44:16;;;;;;;1.98;1.35;;;14.60;99.90;;;;;;5094019;28;20698;-77
2023/08/30 11:46:47;;;;;;;2.53;1.50;;;14.60;99.90;;;;;;5088733;28;20193;-78
2023/08/30 11:49:18;;;;;;;2.67;1.77;;;14.60;99.90;;;;;;5073521;28;20192;-78
2023/08/30 11:51:52;;;;;;;2.88;1.63;;;14.60;99.90;;;;;;5091037;28;20192;-77
2023/08/30 11:54:23;;;;;;;2.20;1.50;;;14.70;99.90;;;;;;5093455;28;20246;-78
2023/08/30 11:56:54;;;;;;;3.67;1.90;;;14.60;99.90;;;;;;5082522;28;20193;-78
2023/08/30 11:59:26;;;;;;;1.85;1.63;;;14.60;99.90;;;;;;5087458;28;20188;-77
2023/08/30 12:01:57;;;;;;;3.55;2.10;;;14.60;99.90;;;;;;5091553;28;20189;-78
2023/08/30 12:04:28;;;;;;;2.33;1.90;;;14.60;99.90;;;;;;5073972;28;20213;-77
2023/08/30 12:07:01;;;;;;;2.47;1.77;;;14.60;99.90;;;;;;5073321;28;20193;-76
2023/08/30 12:09:34;;;;;;;2.38;1.80;;;14.60;99.90;;;;;;5073286;28;20246;-75
2023/08/30 12:12:13;;;;;;;2.38;2.00;;;14.60;99.90;;;;;;5073214;28;20696;-75
2023/08/30 12:14:44;;;;;;;3.13;2.17;;;14.50;99.90;;;;;;5083814;28;20189;-77
2023/08/30 12:17:15;;;;;;;3.75;2.13;;;14.50;99.90;;;;;;5088514;28;20184;-77
2023/08/30 12:19:45;;;;;;;2.20;2.00;;;14.50;99.90;;;;;;5089292;28;20180;-77
2023/08/30 12:22:18;;;;;;;2.55;2.05;;;14.50;99.90;;;;;;5080898;28;20196;-77
2023/08/30 12:24:49;;;;;;;2.78;1.90;;;14.50;99.90;;;;;;5093208;28;20219;-78
2023/08/30 12:27:20;;;;;;;2.72;2.08;;;14.40;99.90;;;;;;5090581;28;20728;-77
2023/08/30 12:29:51;;;;;;;3.30;2.00;;;14.40;99.90;;;;;;5079248;28;20192;-76
2023/08/30 12:32:21;;;;;;;2.42;1.85;;;14.40;99.90;;;;;;5079078;28;20211;-75
2023/08/30 12:34:52;;;;;;;2.88;2.10;;;14.40;99.90;;;;;;5092882;28;20192;-76
2023/08/30 12:37:26;;;;;;;3.85;2.40;;;14.50;99.90;;;;;;5093117;28;20555;-76
2023/08/30 12:39:57;;;;;;;2.58;1.98;;;14.50;99.90;;;;;;5092771;28;20215;-76
2023/08/30 12:42:28;;;;;;;2.05;1.88;;;14.40;99.90;;;;;;5093178;28;20192;-76
2023/08/30 12:44:59;;;;;;;2.55;2.13;;;14.40;99.90;;;;;;5092982;28;20277;-76
2023/08/30 12:47:29;;;;;;;2.85;1.90;;;14.40;99.90;;;;;;5091762;28;20210;-77
2023/08/30 12:50:00;;;;;;;3.00;2.28;;;14.40;99.90;;;;;;5087642;28;20193;-75
2023/08/30 12:52:33;;;;;;;2.60;1.90;;;14.50;99.90;;;;;;5089530;28;20195;-78
2023/08/30 12:55:04;;;;;;;2.97;2.20;;;14.40;99.90;;;;;;5072604;28;20193;-77
2023/08/30 12:57:34;;;;;;;3.17;2.00;;;14.40;99.90;;;;;;5073750;28;20645;-77
2023/08/30 13:00:05;;;;;;;4.22;2.47;;;14.40;99.90;;;;;;5073749;28;20657;-77
2023/08/30 13:02:36;;;;;;;4.30;2.55;;;14.30;99.90;;;;;;5072415;28;20192;-77
2023/08/30 13:05:07;;;;;;;2.30;2.10;;;14.30;99.90;;;;;;5073091;28;20226;-76
2023/08/30 13:07:40;;;;;;;2.85;2.10;;;14.30;99.90;;;;;;5072534;28;20239;-74
2023/08/30 13:10:11;;;;;;;4.32;2.60;;;14.30;99.90;;;;;;5089091;28;20640;-74